sensor_id;sensor_type;location;lat;lon;timestamp;pressure;altitude;pressure_sealevel;temperature;humidity
70248;BME280;57641;51.416;5.506;2023-02-04T00:00:09;103393.34;;;12.05;65.04
70248;BME280;57641;51.416;5.506;2023-02-04T00:02:35;103385.09;;;12.08;65.40
70248;BME280;57641;51.416;5.506;2023-02-04T00:05:03;103380.69;;;11.94;65.77
70248;BME280;57641;51.416;5.506;2023-02-04T00:07:35;103384.81;;;12.12;65.42
70248;BME280;57641;51.416;5.506;2023-02-04T00:10:03;103381.16;;;12.13;65.07
70248;BME280;57641;51.416;5.506;2023-02-04T00:12:29;103372.94;;;12.16;65.11
70248;BME280;57641;51.416;5.506;2023-02-04T00:14:55;103372.09;;;12.16;65.52
70248;BME280;57641;51.416;5.506;2023-02-04T00:17:20;103373.25;;;12.12;64.52
70248;BME280;57641;51.416;5.506;2023-02-04T00:19:46;103381.72;;;12.18;64.58
70248;BME280;57641;51.416;5.506;2023-02-04T00:22:11;103380.47;;;12.24;64.49
70248;BME280;57641;51.416;5.506;2023-02-04T00:24:37;103379.50;;;12.25;64.37
70248;BME280;57641;51.416;5.506;2023-02-04T00:27:04;103375.09;;;12.24;64.45
70248;BME280;57641;51.416;5.506;2023-02-04T00:29:32;103372.47;;;12.37;63.30
70248;BME280;57641;51.416;5.506;2023-02-04T00:31:57;103378.84;;;12.21;63.17
70248;BME280;57641;51.416;5.506;2023-02-04T00:34:23;103374.88;;;12.27;63.64
70248;BME280;57641;51.416;5.506;2023-02-04T00:36:49;103386.75;;;12.23;63.76
70248;BME280;57641;51.416;5.506;2023-02-04T00:39:14;103377.88;;;12.22;64.01
70248;BME280;57641;51.416;5.506;2023-02-04T00:41:43;103391.72;;;12.29;63.72
70248;BME280;57641;51.416;5.506;2023-02-04T00:44:10;103397.47;;;12.23;63.88
70248;BME280;57641;51.416;5.506;2023-02-04T00:46:35;103393.44;;;12.30;63.27
70248;BME280;57641;51.416;5.506;2023-02-04T00:49:01;103397.16;;;12.27;63.67
70248;BME280;57641;51.416;5.506;2023-02-04T00:51:27;103392.50;;;12.44;63.18
70248;BME280;57641;51.416;5.506;2023-02-04T00:53:53;103393.72;;;12.52;63.18
70248;BME280;57641;51.416;5.506;2023-02-04T00:56:18;103391.44;;;12.46;62.52
70248;BME280;57641;51.416;5.506;2023-02-04T00:58:44;103398.63;;;12.58;62.69
70248;BME280;57641;51.416;5.506;2023-02-04T01:01:09;103397.97;;;12.55;62.62
70248;BME280;57641;51.416;5.506;2023-02-04T01:03:35;103398.38;;;12.49;63.09
70248;BME280;57641;51.416;5.506;2023-02-04T01:06:00;103391.44;;;12.46;62.68
70248;BME280;57641;51.416;5.506;2023-02-04T01:08:26;103397.63;;;12.07;63.69
70248;BME280;57641;51.416;5.506;2023-02-04T01:11:08;103399.63;;;12.31;64.00
70248;BME280;57641;51.416;5.506;2023-02-04T01:13:34;103405.22;;;12.40;63.60
70248;BME280;57641;51.416;5.506;2023-02-04T01:16:02;103397.84;;;12.44;63.07
70248;BME280;57641;51.416;5.506;2023-02-04T01:18:28;103419.16;;;12.45;62.69
70248;BME280;57641;51.416;5.506;2023-02-04T01:20:54;103413.03;;;12.43;62.20
70248;BME280;57641;51.416;5.506;2023-02-04T01:23:22;103421.34;;;12.26;62.82
70248;BME280;57641;51.416;5.506;2023-02-04T01:25:48;103421.69;;;12.34;62.86
70248;BME280;57641;51.416;5.506;2023-02-04T01:28:13;103418.38;;;12.43;62.94
70248;BME280;57641;51.416;5.506;2023-02-04T01:30:39;103425.56;;;12.43;62.77
70248;BME280;57641;51.416;5.506;2023-02-04T01:33:04;103428.44;;;12.40;63.44
70248;BME280;57641;51.416;5.506;2023-02-04T01:35:30;103423.75;;;12.43;62.65
70248;BME280;57641;51.416;5.506;2023-02-04T01:37:56;103426.31;;;12.45;62.60
70248;BME280;57641;51.416;5.506;2023-02-04T01:40:21;103429.09;;;12.43;62.39
70248;BME280;57641;51.416;5.506;2023-02-04T01:42:47;103423.97;;;12.40;63.11
70248;BME280;57641;51.416;5.506;2023-02-04T01:45:12;103427.69;;;12.38;62.87
70248;BME280;57641;51.416;5.506;2023-02-04T01:47:39;103435.16;;;12.33;63.03
70248;BME280;57641;51.416;5.506;2023-02-04T01:50:11;103435.28;;;12.31;63.07
70248;BME280;57641;51.416;5.506;2023-02-04T01:52:38;103433.03;;;12.38;62.69
70248;BME280;57641;51.416;5.506;2023-02-04T01:55:14;103432.75;;;12.42;63.23
70248;BME280;57641;51.416;5.506;2023-02-04T01:57:41;103442.38;;;12.45;62.65
70248;BME280;57641;51.416;5.506;2023-02-04T02:00:27;103441.19;;;12.49;62.48
70248;BME280;57641;51.416;5.506;2023-02-04T02:02:54;103445.69;;;12.48;62.21
70248;BME280;57641;51.416;5.506;2023-02-04T02:08:06;103455.28;;;12.38;62.24
70248;BME280;57641;51.416;5.506;2023-02-04T02:10:34;103449.94;;;12.38;62.10
70248;BME280;57641;51.416;5.506;2023-02-04T02:13:02;103449.00;;;12.39;62.57
70248;BME280;57641;51.416;5.506;2023-02-04T02:15:31;103448.44;;;12.34;61.90
70248;BME280;57641;51.416;5.506;2023-02-04T02:17:58;103455.59;;;12.34;62.05
70248;BME280;57641;51.416;5.506;2023-02-04T02:20:24;103448.97;;;12.26;63.02
70248;BME280;57641;51.416;5.506;2023-02-04T02:23:10;103448.66;;;12.31;62.47
70248;BME280;57641;51.416;5.506;2023-02-04T02:25:39;103453.88;;;12.33;62.39
70248;BME280;57641;51.416;5.506;2023-02-04T02:28:10;103457.22;;;12.36;61.90
70248;BME280;57641;51.416;5.506;2023-02-04T02:30:37;103460.66;;;12.38;61.66
70248;BME280;57641;51.416;5.506;2023-02-04T02:33:04;103447.88;;;12.29;60.73
70248;BME280;57641;51.416;5.506;2023-02-04T02:35:34;103453.88;;;12.33;60.85
70248;BME280;57641;51.416;5.506;2023-02-04T02:38:00;103451.19;;;12.33;61.25
70248;BME280;57641;51.416;5.506;2023-02-04T02:40:28;103447.78;;;12.31;61.05
70248;BME280;57641;51.416;5.506;2023-02-04T02:42:54;103462.97;;;12.30;61.54
70248;BME280;57641;51.416;5.506;2023-02-04T02:45:30;103456.00;;;12.27;60.65
70248;BME280;57641;51.416;5.506;2023-02-04T02:47:58;103462.44;;;12.25;60.56
70248;BME280;57641;51.416;5.506;2023-02-04T02:50:29;103465.28;;;12.22;60.24
70248;BME280;57641;51.416;5.506;2023-02-04T02:52:56;103476.97;;;12.21;60.05
70248;BME280;57641;51.416;5.506;2023-02-04T02:55:25;103478.97;;;12.17;60.11
70248;BME280;57641;51.416;5.506;2023-02-04T02:57:54;103473.81;;;12.14;59.76
70248;BME280;57641;51.416;5.506;2023-02-04T03:00:28;103478.31;;;12.14;59.35
70248;BME280;57641;51.416;5.506;2023-02-04T03:03:11;103483.41;;;12.04;59.58
70248;BME280;57641;51.416;5.506;2023-02-04T03:05:42;103486.63;;;11.95;59.57
70248;BME280;57641;51.416;5.506;2023-02-04T03:08:11;103484.19;;;11.92;58.86
70248;BME280;57641;51.416;5.506;2023-02-04T03:10:41;103488.75;;;11.90;59.01
70248;BME280;57641;51.416;5.506;2023-02-04T03:13:08;103490.97;;;11.83;59.33
70248;BME280;57641;51.416;5.506;2023-02-04T03:15:34;103483.03;;;11.82;59.17
70248;BME280;57641;51.416;5.506;2023-02-04T03:18:01;103486.00;;;11.77;59.06
70248;BME280;57641;51.416;5.506;2023-02-04T03:20:29;103483.50;;;11.74;59.68
70248;BME280;57641;51.416;5.506;2023-02-04T03:22:59;103480.16;;;11.71;58.91
70248;BME280;57641;51.416;5.506;2023-02-04T03:25:25;103478.72;;;11.65;59.29
70248;BME280;57641;51.416;5.506;2023-02-04T03:27:54;103486.81;;;11.64;59.11
70248;BME280;57641;51.416;5.506;2023-02-04T03:30:22;103490.66;;;11.60;58.90
70248;BME280;57641;51.416;5.506;2023-02-04T03:32:48;103497.06;;;11.57;58.43
70248;BME280;57641;51.416;5.506;2023-02-04T03:35:13;103500.09;;;11.51;58.76
70248;BME280;57641;51.416;5.506;2023-02-04T03:37:39;103502.38;;;11.43;58.56
70248;BME280;57641;51.416;5.506;2023-02-04T03:40:06;103504.59;;;11.36;58.86
70248;BME280;57641;51.416;5.506;2023-02-04T03:42:32;103495.22;;;11.29;59.36
70248;BME280;57641;51.416;5.506;2023-02-04T03:44:59;103503.41;;;11.26;59.38
70248;BME280;57641;51.416;5.506;2023-02-04T03:47:24;103503.41;;;11.26;59.02
70248;BME280;57641;51.416;5.506;2023-02-04T03:49:53;103518.59;;;11.26;58.78
70248;BME280;57641;51.416;5.506;2023-02-04T03:52:18;103517.81;;;11.24;58.95
70248;BME280;57641;51.416;5.506;2023-02-04T03:54:44;103526.78;;;11.23;59.34
70248;BME280;57641;51.416;5.506;2023-02-04T03:57:11;103522.56;;;11.19;59.33
70248;BME280;57641;51.416;5.506;2023-02-04T03:59:36;103516.44;;;11.17;59.41
70248;BME280;57641;51.416;5.506;2023-02-04T04:02:03;103515.72;;;11.15;59.02
70248;BME280;57641;51.416;5.506;2023-02-04T04:04:29;103517.59;;;11.13;59.01
70248;BME280;57641;51.416;5.506;2023-02-04T04:06:55;103507.19;;;11.08;58.86
70248;BME280;57641;51.416;5.506;2023-02-04T04:09:21;103514.91;;;10.98;58.89
70248;BME280;57641;51.416;5.506;2023-02-04T04:11:46;103514.31;;;10.93;59.11
70248;BME280;57641;51.416;5.506;2023-02-04T04:14:12;103519.22;;;10.85;58.97
70248;BME280;57641;51.416;5.506;2023-02-04T04:16:38;103522.75;;;10.86;59.81
70248;BME280;57641;51.416;5.506;2023-02-04T04:19:04;103524.56;;;10.85;59.10
70248;BME280;57641;51.416;5.506;2023-02-04T04:21:29;103518.34;;;10.85;59.20
70248;BME280;57641;51.416;5.506;2023-02-04T04:23:55;103526.72;;;10.79;59.37
70248;BME280;57641;51.416;5.506;2023-02-04T04:26:21;103525.03;;;10.78;59.43
70248;BME280;57641;51.416;5.506;2023-02-04T04:28:46;103528.72;;;10.75;59.37
70248;BME280;57641;51.416;5.506;2023-02-04T04:31:13;103533.13;;;10.76;59.50
70248;BME280;57641;51.416;5.506;2023-02-04T04:33:39;103533.31;;;10.73;58.67
70248;BME280;57641;51.416;5.506;2023-02-04T04:36:07;103532.25;;;10.76;59.27
70248;BME280;57641;51.416;5.506;2023-02-04T04:38:33;103531.16;;;10.64;59.02
70248;BME280;57641;51.416;5.506;2023-02-04T04:40:58;103542.88;;;10.62;59.09
70248;BME280;57641;51.416;5.506;2023-02-04T04:43:24;103548.28;;;10.60;59.68
70248;BME280;57641;51.416;5.506;2023-02-04T04:45:50;103550.94;;;10.60;59.55
70248;BME280;57641;51.416;5.506;2023-02-04T04:48:21;103546.41;;;10.62;59.73
70248;BME280;57641;51.416;5.506;2023-02-04T04:50:48;103550.16;;;10.58;59.86
70248;BME280;57641;51.416;5.506;2023-02-04T04:53:14;103549.16;;;10.61;60.12
70248;BME280;57641;51.416;5.506;2023-02-04T04:55:43;103550.75;;;10.63;60.07
70248;BME280;57641;51.416;5.506;2023-02-04T04:58:12;103547.25;;;10.63;60.38
70248;BME280;57641;51.416;5.506;2023-02-04T05:00:37;103549.06;;;10.62;60.79
70248;BME280;57641;51.416;5.506;2023-02-04T05:03:03;103554.22;;;10.65;61.60
70248;BME280;57641;51.416;5.506;2023-02-04T05:05:29;103550.34;;;10.71;61.20
70248;BME280;57641;51.416;5.506;2023-02-04T05:07:54;103552.13;;;10.70;61.64
70248;BME280;57641;51.416;5.506;2023-02-04T05:10:22;103548.44;;;10.73;62.24
70248;BME280;57641;51.416;5.506;2023-02-04T05:12:51;103550.84;;;10.77;62.61
70248;BME280;57641;51.416;5.506;2023-02-04T05:15:17;103545.91;;;10.85;63.12
70248;BME280;57641;51.416;5.506;2023-02-04T05:17:43;103550.81;;;10.93;63.16
70248;BME280;57641;51.416;5.506;2023-02-04T05:20:09;103560.28;;;10.98;63.09
70248;BME280;57641;51.416;5.506;2023-02-04T05:22:35;103562.47;;;11.06;62.68
70248;BME280;57641;51.416;5.506;2023-02-04T05:25:02;103560.34;;;10.97;62.51
70248;BME280;57641;51.416;5.506;2023-02-04T05:27:28;103570.75;;;11.01;62.87
70248;BME280;57641;51.416;5.506;2023-02-04T05:29:54;103581.78;;;10.95;63.40
70248;BME280;57641;51.416;5.506;2023-02-04T05:32:20;103579.25;;;10.94;63.52
70248;BME280;57641;51.416;5.506;2023-02-04T05:34:45;103578.66;;;10.89;64.36
70248;BME280;57641;51.416;5.506;2023-02-04T05:37:11;103580.84;;;10.96;64.13
70248;BME280;57641;51.416;5.506;2023-02-04T05:39:36;103584.03;;;11.03;64.78
70248;BME280;57641;51.416;5.506;2023-02-04T05:42:03;103575.94;;;11.05;64.06
70248;BME280;57641;51.416;5.506;2023-02-04T05:44:28;103570.59;;;11.05;65.17
70248;BME280;57641;51.416;5.506;2023-02-04T05:46:54;103578.13;;;11.12;64.33
70248;BME280;57641;51.416;5.506;2023-02-04T05:49:20;103577.00;;;11.16;64.28
70248;BME280;57641;51.416;5.506;2023-02-04T05:51:46;103574.91;;;11.21;64.26
70248;BME280;57641;51.416;5.506;2023-02-04T05:54:11;103575.69;;;11.23;64.38
70248;BME280;57641;51.416;5.506;2023-02-04T05:56:44;103580.38;;;11.20;64.36
70248;BME280;57641;51.416;5.506;2023-02-04T05:59:14;103580.19;;;11.23;64.67
70248;BME280;57641;51.416;5.506;2023-02-04T06:01:40;103584.38;;;11.27;64.08
70248;BME280;57641;51.416;5.506;2023-02-04T06:04:06;103578.88;;;11.30;62.93
70248;BME280;57641;51.416;5.506;2023-02-04T06:06:31;103585.16;;;11.29;62.89
70248;BME280;57641;51.416;5.506;2023-02-04T06:08:57;103588.69;;;11.29;61.86
70248;BME280;57641;51.416;5.506;2023-02-04T06:11:23;103594.91;;;11.30;61.79
70248;BME280;57641;51.416;5.506;2023-02-04T06:13:49;103589.63;;;11.28;61.49
70248;BME280;57641;51.416;5.506;2023-02-04T06:16:14;103588.84;;;11.26;61.74
70248;BME280;57641;51.416;5.506;2023-02-04T06:18:43;103596.28;;;11.21;61.73
70248;BME280;57641;51.416;5.506;2023-02-04T06:21:09;103601.47;;;11.24;61.67
70248;BME280;57641;51.416;5.506;2023-02-04T06:23:34;103610.22;;;11.26;61.73
70248;BME280;57641;51.416;5.506;2023-02-04T06:26:01;103617.50;;;11.24;61.36
70248;BME280;57641;51.416;5.506;2023-02-04T06:28:27;103621.78;;;11.27;61.72
70248;BME280;57641;51.416;5.506;2023-02-04T06:30:52;103628.84;;;11.28;61.36
70248;BME280;57641;51.416;5.506;2023-02-04T06:33:18;103629.78;;;11.27;61.17
70248;BME280;57641;51.416;5.506;2023-02-04T06:35:44;103630.84;;;11.24;61.37
70248;BME280;57641;51.416;5.506;2023-02-04T06:38:09;103634.53;;;11.22;61.29
70248;BME280;57641;51.416;5.506;2023-02-04T06:40:35;103632.91;;;11.19;61.98
70248;BME280;57641;51.416;5.506;2023-02-04T06:43:02;103640.84;;;11.21;61.77
70248;BME280;57641;51.416;5.506;2023-02-04T06:45:28;103639.72;;;11.25;61.84
70248;BME280;57641;51.416;5.506;2023-02-04T06:47:54;103641.53;;;11.24;61.95
70248;BME280;57641;51.416;5.506;2023-02-04T06:50:20;103639.72;;;11.25;61.72
70248;BME280;57641;51.416;5.506;2023-02-04T06:52:45;103648.66;;;11.24;62.19
70248;BME280;57641;51.416;5.506;2023-02-04T06:55:13;103632.66;;;11.24;61.76
70248;BME280;57641;51.416;5.506;2023-02-04T06:57:41;103647.88;;;11.22;61.96
70248;BME280;57641;51.416;5.506;2023-02-04T07:00:10;103646.88;;;11.24;62.60
70248;BME280;57641;51.416;5.506;2023-02-04T07:02:38;103650.22;;;11.28;62.55
70248;BME280;57641;51.416;5.506;2023-02-04T07:05:05;103644.88;;;11.28;62.65
70248;BME280;57641;51.416;5.506;2023-02-04T07:07:33;103657.09;;;11.32;62.25
70248;BME280;57641;51.416;5.506;2023-02-04T07:09:59;103658.28;;;11.26;62.28
70248;BME280;57641;51.416;5.506;2023-02-04T07:12:28;103669.97;;;11.25;62.23
70248;BME280;57641;51.416;5.506;2023-02-04T07:14:53;103671.50;;;11.29;62.24
70248;BME280;57641;51.416;5.506;2023-02-04T07:17:19;103671.41;;;11.31;62.50
70248;BME280;57641;51.416;5.506;2023-02-04T07:19:45;103674.16;;;11.29;62.04
70248;BME280;57641;51.416;5.506;2023-02-04T07:22:11;103672.16;;;11.33;62.26
70248;BME280;57641;51.416;5.506;2023-02-04T07:24:36;103670.34;;;11.33;61.95
70248;BME280;57641;51.416;5.506;2023-02-04T07:27:03;103672.34;;;11.30;62.79
70248;BME280;57641;51.416;5.506;2023-02-04T07:29:29;103676.75;;;11.31;62.22
70248;BME280;57641;51.416;5.506;2023-02-04T07:31:55;103680.09;;;11.34;62.44
70248;BME280;57641;51.416;5.506;2023-02-04T07:34:21;103685.25;;;11.37;62.50
70248;BME280;57641;51.416;5.506;2023-02-04T07:36:47;103685.09;;;11.40;62.60
70248;BME280;57641;51.416;5.506;2023-02-04T07:39:13;103688.44;;;11.44;62.63
70248;BME280;57641;51.416;5.506;2023-02-04T07:41:39;103687.91;;;11.37;62.22
70248;BME280;57641;51.416;5.506;2023-02-04T07:44:08;103697.34;;;11.29;62.62
70248;BME280;57641;51.416;5.506;2023-02-04T07:46:34;103697.00;;;11.35;62.98
70248;BME280;57641;51.416;5.506;2023-02-04T07:48:59;103697.75;;;11.37;62.98
70248;BME280;57641;51.416;5.506;2023-02-04T07:51:25;103701.47;;;11.34;62.60
70248;BME280;57641;51.416;5.506;2023-02-04T07:53:51;103693.38;;;11.36;63.00
70248;BME280;57641;51.416;5.506;2023-02-04T07:56:20;103704.81;;;11.38;62.91
70248;BME280;57641;51.416;5.506;2023-02-04T07:58:45;103702.84;;;11.41;62.62
70248;BME280;57641;51.416;5.506;2023-02-04T08:01:12;103706.19;;;11.45;63.47
70248;BME280;57641;51.416;5.506;2023-02-04T08:03:38;103709.44;;;11.50;63.35
70248;BME280;57641;51.416;5.506;2023-02-04T08:06:04;103706.59;;;11.53;63.03
70248;BME280;57641;51.416;5.506;2023-02-04T08:08:30;103717.97;;;11.57;63.23
70248;BME280;57641;51.416;5.506;2023-02-04T08:10:56;103714.34;;;11.58;63.39
70248;BME280;57641;51.416;5.506;2023-02-04T08:13:21;103721.41;;;11.59;62.97
70248;BME280;57641;51.416;5.506;2023-02-04T08:15:48;103717.69;;;11.61;63.27
70248;BME280;57641;51.416;5.506;2023-02-04T08:18:13;103720.09;;;11.66;63.75
70248;BME280;57641;51.416;5.506;2023-02-04T08:20:39;103723.34;;;11.71;63.13
70248;BME280;57641;51.416;5.506;2023-02-04T08:23:05;103735.63;;;11.75;64.00
70248;BME280;57641;51.416;5.506;2023-02-04T08:25:30;103725.63;;;11.78;63.85
70248;BME280;57641;51.416;5.506;2023-02-04T08:27:56;103727.16;;;11.82;63.75
70248;BME280;57641;51.416;5.506;2023-02-04T08:30:23;103723.25;;;11.88;63.39
70248;BME280;57641;51.416;5.506;2023-02-04T08:32:48;103727.47;;;11.92;64.04
70248;BME280;57641;51.416;5.506;2023-02-04T08:35:19;103736.34;;;11.93;63.72
70248;BME280;57641;51.416;5.506;2023-02-04T08:37:44;103737.72;;;12.00;63.77
70248;BME280;57641;51.416;5.506;2023-02-04T08:40:10;103735.78;;;12.02;63.24
70248;BME280;57641;51.416;5.506;2023-02-04T08:42:39;103743.72;;;12.03;63.83
70248;BME280;57641;51.416;5.506;2023-02-04T08:45:05;103740.78;;;12.08;63.76
70248;BME280;57641;51.416;5.506;2023-02-04T08:47:31;103747.56;;;12.13;64.28
70248;BME280;57641;51.416;5.506;2023-02-04T08:49:56;103743.66;;;12.19;63.66
70248;BME280;57641;51.416;5.506;2023-02-04T08:52:22;103733.47;;;12.25;64.27
70248;BME280;57641;51.416;5.506;2023-02-04T08:54:48;103741.19;;;12.30;63.87
70248;BME280;57641;51.416;5.506;2023-02-04T08:57:13;103734.69;;;12.34;63.42
70248;BME280;57641;51.416;5.506;2023-02-04T08:59:39;103732.09;;;12.33;63.56
70248;BME280;57641;51.416;5.506;2023-02-04T09:02:05;103741.84;;;12.34;63.83
70248;BME280;57641;51.416;5.506;2023-02-04T09:04:34;103743.28;;;12.39;64.12
70248;BME280;57641;51.416;5.506;2023-02-04T09:07:00;103744.81;;;12.43;64.27
70248;BME280;57641;51.416;5.506;2023-02-04T09:09:25;103751.91;;;12.44;63.99
70248;BME280;57641;51.416;5.506;2023-02-04T09:11:51;103758.19;;;12.43;63.90
70248;BME280;57641;51.416;5.506;2023-02-04T09:14:17;103757.09;;;12.47;64.56
70248;BME280;57641;51.416;5.506;2023-02-04T09:16:43;103762.22;;;12.50;64.44
70248;BME280;57641;51.416;5.506;2023-02-04T09:19:13;103761.44;;;12.48;64.36
70248;BME280;57641;51.416;5.506;2023-02-04T09:21:41;103757.44;;;12.55;64.30
70248;BME280;57641;51.416;5.506;2023-02-04T09:24:07;103756.66;;;12.53;64.32
70248;BME280;57641;51.416;5.506;2023-02-04T09:26:32;103759.19;;;12.56;64.10
70248;BME280;57641;51.416;5.506;2023-02-04T09:29:01;103757.38;;;12.57;63.88
70248;BME280;57641;51.416;5.506;2023-02-04T09:31:27;103761.00;;;12.56;64.64
70248;BME280;57641;51.416;5.506;2023-02-04T09:33:56;103775.03;;;12.59;65.00
70248;BME280;57641;51.416;5.506;2023-02-04T09:36:22;103768.16;;;12.69;64.82
70248;BME280;57641;51.416;5.506;2023-02-04T09:38:52;103766.03;;;13.17;64.74
70248;BME280;57641;51.416;5.506;2023-02-04T09:41:18;103770.28;;;13.48;63.26
70248;BME280;57641;51.416;5.506;2023-02-04T09:43:47;103773.03;;;13.46;61.89
70248;BME280;57641;51.416;5.506;2023-02-04T09:46:21;103778.88;;;13.39;61.96
70248;BME280;57641;51.416;5.506;2023-02-04T09:48:49;103778.31;;;13.34;62.18
70248;BME280;57641;51.416;5.506;2023-02-04T09:51:22;103781.22;;;13.17;61.78
70248;BME280;57641;51.416;5.506;2023-02-04T09:53:50;103785.47;;;13.21;62.16
70248;BME280;57641;51.416;5.506;2023-02-04T09:56:20;103782.66;;;13.22;62.58
70248;BME280;57641;51.416;5.506;2023-02-04T09:58:49;103775.69;;;13.20;62.08
70248;BME280;57641;51.416;5.506;2023-02-04T10:01:17;103782.00;;;13.19;62.69
70248;BME280;57641;51.416;5.506;2023-02-04T10:03:45;103779.41;;;13.17;61.77
70248;BME280;57641;51.416;5.506;2023-02-04T10:06:22;103782.97;;;13.18;61.92
70248;BME280;57641;51.416;5.506;2023-02-04T10:08:52;103781.34;;;13.15;62.10
70248;BME280;57641;51.416;5.506;2023-02-04T10:11:20;103779.78;;;13.25;62.81
70248;BME280;57641;51.416;5.506;2023-02-04T10:13:51;103784.75;;;13.31;62.18
70248;BME280;57641;51.416;5.506;2023-02-04T10:16:32;103791.94;;;13.31;62.31
70248;BME280;57641;51.416;5.506;2023-02-04T10:19:05;103794.00;;;13.40;61.64
70248;BME280;57641;51.416;5.506;2023-02-04T10:21:33;103791.88;;;13.45;61.07
70248;BME280;57641;51.416;5.506;2023-02-04T10:24:04;103787.31;;;13.47;60.88
70248;BME280;57641;51.416;5.506;2023-02-04T10:26:32;103796.94;;;13.49;60.61
70248;BME280;57641;51.416;5.506;2023-02-04T10:29:07;103796.25;;;13.60;61.22
70248;BME280;57641;51.416;5.506;2023-02-04T10:31:34;103800.00;;;13.58;59.41
70248;BME280;57641;51.416;5.506;2023-02-04T10:37:31;103795.91;;;13.52;59.02
70248;BME280;57641;51.416;5.506;2023-02-04T10:39:57;103796.63;;;13.54;58.91
70248;BME280;57641;51.416;5.506;2023-02-04T10:42:30;103800.31;;;13.53;58.68
70248;BME280;57641;51.416;5.506;2023-02-04T10:44:57;103803.53;;;13.58;58.44
70248;BME280;57641;51.416;5.506;2023-02-04T10:47:25;103806.31;;;13.57;58.56
70248;BME280;57641;51.416;5.506;2023-02-04T10:50:16;103807.81;;;13.61;59.03
70248;BME280;57641;51.416;5.506;2023-02-04T10:52:49;103805.53;;;13.69;59.46
70248;BME280;57641;51.416;5.506;2023-02-04T10:55:21;103810.56;;;13.73;59.32
70248;BME280;57641;51.416;5.506;2023-02-04T10:57:50;103808.59;;;13.89;58.91
70248;BME280;57641;51.416;5.506;2023-02-04T11:00:18;103811.97;;;13.79;58.37
70248;BME280;57641;51.416;5.506;2023-02-04T11:05:23;103806.13;;;13.99;57.22
70248;BME280;57641;51.416;5.506;2023-02-04T11:07:50;103803.00;;;13.92;56.91
70248;BME280;57641;51.416;5.506;2023-02-04T11:10:20;103806.22;;;13.85;56.45
70248;BME280;57641;51.416;5.506;2023-02-04T11:13:01;103799.06;;;13.98;56.95
70248;BME280;57641;51.416;5.506;2023-02-04T11:15:43;103796.38;;;13.98;54.65
70248;BME280;57641;51.416;5.506;2023-02-04T11:20:44;103793.91;;;14.08;54.70
70248;BME280;57641;51.416;5.506;2023-02-04T11:23:31;103796.94;;;14.16;54.62
70248;BME280;57641;51.416;5.506;2023-02-04T11:26:31;103790.06;;;14.12;55.09
70248;BME280;57641;51.416;5.506;2023-02-04T11:31:38;103789.72;;;14.04;55.72
70248;BME280;57641;51.416;5.506;2023-02-04T11:34:25;103797.13;;;14.13;55.40
70248;BME280;57641;51.416;5.506;2023-02-04T11:39:37;103792.91;;;13.96;54.82
70248;BME280;57641;51.416;5.506;2023-02-04T11:44:54;103792.59;;;13.88;55.04
70248;BME280;57641;51.416;5.506;2023-02-04T11:47:24;103795.63;;;14.09;55.03
70248;BME280;57641;51.416;5.506;2023-02-04T11:50:01;103779.03;;;14.16;54.92
70248;BME280;57641;51.416;5.506;2023-02-04T11:52:27;103783.94;;;14.22;54.59
70248;BME280;57641;51.416;5.506;2023-02-04T11:54:54;103785.69;;;14.36;54.16
70248;BME280;57641;51.416;5.506;2023-02-04T11:57:24;103789.59;;;14.45;53.61
70248;BME280;57641;51.416;5.506;2023-02-04T11:59:52;103788.09;;;14.53;52.72
70248;BME280;57641;51.416;5.506;2023-02-04T12:02:20;103783.69;;;14.52;52.55
70248;BME280;57641;51.416;5.506;2023-02-04T12:07:25;103791.13;;;14.49;52.76
70248;BME280;57641;51.416;5.506;2023-02-04T12:10:08;103782.84;;;14.52;52.86
70248;BME280;57641;51.416;5.506;2023-02-04T12:12:42;103784.03;;;14.48;52.68
70248;BME280;57641;51.416;5.506;2023-02-04T12:15:15;103781.13;;;14.51;52.51
70248;BME280;57641;51.416;5.506;2023-02-04T12:17:45;103794.66;;;14.36;52.11
70248;BME280;57641;51.416;5.506;2023-02-04T12:20:13;103791.91;;;14.24;52.80
70248;BME280;57641;51.416;5.506;2023-02-04T12:22:39;103791.34;;;14.19;53.28
70248;BME280;57641;51.416;5.506;2023-02-04T12:25:05;103793.41;;;14.28;53.07
70248;BME280;57641;51.416;5.506;2023-02-04T12:27:32;103793.06;;;14.07;52.81
70248;BME280;57641;51.416;5.506;2023-02-04T12:29:57;103784.94;;;14.21;53.16
70248;BME280;57641;51.416;5.506;2023-02-04T12:32:23;103789.63;;;14.18;53.15
70248;BME280;57641;51.416;5.506;2023-02-04T12:34:49;103798.06;;;14.38;53.54
70248;BME280;57641;51.416;5.506;2023-02-04T12:37:16;103798.41;;;14.47;53.16
70248;BME280;57641;51.416;5.506;2023-02-04T12:39:42;103795.50;;;14.37;52.02
70248;BME280;57641;51.416;5.506;2023-02-04T12:42:07;103791.84;;;14.51;52.03
70248;BME280;57641;51.416;5.506;2023-02-04T12:44:36;103794.25;;;14.28;50.99
70248;BME280;57641;51.416;5.506;2023-02-04T12:47:02;103791.06;;;14.36;51.50
70248;BME280;57641;51.416;5.506;2023-02-04T12:49:28;103793.91;;;14.47;51.18
70248;BME280;57641;51.416;5.506;2023-02-04T12:52:04;103792.38;;;14.56;51.38
70248;BME280;57641;51.416;5.506;2023-02-04T12:54:31;103800.66;;;14.53;51.17
70248;BME280;57641;51.416;5.506;2023-02-04T12:56:57;103791.53;;;14.68;49.82
70248;BME280;57641;51.416;5.506;2023-02-04T12:59:30;103792.94;;;14.73;49.52
70248;BME280;57641;51.416;5.506;2023-02-04T13:01:57;103788.28;;;14.75;50.06
70248;BME280;57641;51.416;5.506;2023-02-04T13:04:23;103791.94;;;14.87;50.36
70248;BME280;57641;51.416;5.506;2023-02-04T13:06:49;103792.34;;;14.94;49.38
70248;BME280;57641;51.416;5.506;2023-02-04T13:09:25;103792.59;;;14.91;49.46
70248;BME280;57641;51.416;5.506;2023-02-04T13:11:51;103788.94;;;14.79;49.56
70248;BME280;57641;51.416;5.506;2023-02-04T13:14:17;103791.94;;;14.87;49.62